Time;durP1;ratioP1;P1;durP2;ratioP2;P2;SDS_P1;SDS_P2;PMS_P1;PMS_P2;Temp;Humidity;BMP_temperature;BMP_pressure;BME280_temperature;BME280_humidity;BME280_pressure;Samples;Min_cycle;Max_cycle;Signal;HPM_P1;HPM_P2
2023/05/23 00:01:47;;;;;;;15.13;13.65;;;;;;;;;;5068913;28;20258;-82
2023/05/23 00:04:17;;;;;;;14.25;12.68;;;;;;;;;;5049200;28;20672;-80
2023/05/23 00:06:49;;;;;;;13.75;12.25;;;;;;;;;;5065441;28;20213;-76
2023/05/23 00:09:17;;;;;;;12.23;11.02;;;;;;;;;;5071118;28;20725;-80
2023/05/23 00:11:44;;;;;;;12.48;11.27;;;;;;;;;;5066575;28;20264;-82
2023/05/23 00:14:13;;;;;;;11.98;10.77;;;;;;;;;;5070566;28;20221;-82
2023/05/23 00:16:44;;;;;;;19.90;15.65;;;;;;;;;;5066055;28;20196;-82
2023/05/23 00:19:13;;;;;;;23.75;17.30;;;;;;;;;;5063508;28;20213;-80
2023/05/23 00:21:42;;;;;;;20.17;15.35;;;;;;;;;;5057842;28;20197;-81
2023/05/23 00:24:10;;;;;;;15.90;14.15;;;;;;;;;;5063229;28;20717;-77
2023/05/23 00:26:37;;;;;;;19.65;14.85;;;;;;;;;;5068809;28;20211;-81
2023/05/23 00:29:05;;;;;;;14.40;12.90;;;;;;;;;;5063677;28;20224;-80
2023/05/23 00:31:32;;;;;;;16.15;13.68;;;;;;;;;;5075431;28;20262;-81
2023/05/23 00:33:59;;;;;;;14.02;12.63;;;;;;;;;;5064558;28;20274;-82
2023/05/23 00:36:27;;;;;;;12.57;11.15;;;;;;;;;;5072516;28;20262;-79
2023/05/23 00:38:54;;;;;;;13.45;12.15;;;;;;;;;;5082620;28;20231;-82
2023/05/23 00:41:21;;;;;;;14.38;12.88;;;;;;;;;;5078313;28;20212;-80
2023/05/23 00:43:49;;;;;;;15.52;13.90;;;;;;;;;;5079742;28;20765;-81
2023/05/23 00:46:16;;;;;;;16.67;14.82;;;;;;;;;;5079865;28;20240;-82
2023/05/23 00:48:43;;;;;;;18.50;15.77;;;;;;;;;;5070268;28;20304;-75
2023/05/23 00:51:10;;;;;;;22.38;16.75;;;;;;;;;;5070543;28;20652;-78
2023/05/23 00:53:38;;;;;;;18.30;16.35;;;;;;;;;;5060615;28;20668;-79
2023/05/23 00:56:05;;;;;;;18.80;16.67;;;;;;;;;;5064191;28;20258;-79
2023/05/23 00:58:32;;;;;;;19.95;16.00;;;;;;;;;;5050043;28;20204;-79
2023/05/23 01:00:59;;;;;;;19.65;17.13;;;;;;;;;;5080935;28;20208;-80
2023/05/23 01:03:27;;;;;;;21.55;17.92;;;;;;;;;;5064929;28;20570;-82
2023/05/23 01:05:55;;;;;;;24.00;17.90;;;;;;;;;;5061711;28;20233;-79
2023/05/23 01:08:22;;;;;;;27.20;21.63;;;;;;;;;;5076230;28;20216;-77
2023/05/23 01:10:50;;;;;;;29.08;22.05;;;;;;;;;;5080661;28;20200;-82
2023/05/23 01:13:20;;;;;;;34.65;24.35;;;;;;;;;;5063544;28;20225;-81
2023/05/23 01:16:04;;;;;;;36.67;24.33;;;;;;;;;;5069696;28;20211;-78
2023/05/23 01:18:40;;;;;;;42.50;29.67;;;;;;;;;;5045649;28;20281;-81
2023/05/23 01:21:17;;;;;;;43.85;30.60;;;;;;;;;;5065686;28;20296;-80
2023/05/23 01:23:44;;;;;;;49.10;32.95;;;;;;;;;;5047580;28;20308;-82
2023/05/23 01:26:25;;;;;;;48.90;32.72;;;;;;;;;;5068491;28;20208;-80
2023/05/23 01:28:55;;;;;;;50.13;33.67;;;;;;;;;;5056037;28;20216;-82
2023/05/23 01:31:24;;;;;;;54.13;36.15;;;;;;;;;;5049142;28;20235;-81
2023/05/23 01:33:53;;;;;;;57.75;36.08;;;;;;;;;;5049926;28;20217;-79
2023/05/23 01:36:20;;;;;;;63.67;39.45;;;;;;;;;;5080756;28;20695;-80
2023/05/23 01:38:48;;;;;;;61.53;40.05;;;;;;;;;;5064721;28;20202;-79
2023/05/23 01:41:15;;;;;;;70.75;42.88;;;;;;;;;;5057025;28;20625;-80
2023/05/23 01:43:42;;;;;;;68.32;42.80;;;;;;;;;;5072277;28;20273;-80
2023/05/23 01:46:10;;;;;;;71.72;43.40;;;;;;;;;;5076873;28;20293;-81
2023/05/23 01:48:38;;;;;;;75.05;45.03;;;;;;;;;;5080019;28;20217;-78
2023/05/23 01:51:05;;;;;;;74.20;45.45;;;;;;;;;;5077734;28;20206;-81
2023/05/23 01:53:34;;;;;;;83.05;46.67;;;;;;;;;;5073514;28;20225;-81
2023/05/23 01:56:02;;;;;;;85.97;49.00;;;;;;;;;;5074118;28;20549;-83
2023/05/23 01:58:29;;;;;;;89.00;50.88;;;;;;;;;;5069076;28;20213;-80
2023/05/23 02:00:57;;;;;;;85.63;48.75;;;;;;;;;;5072892;28;20550;-79
2023/05/23 02:03:24;;;;;;;90.35;49.53;;;;;;;;;;5069845;28;20228;-81
2023/05/23 02:05:52;;;;;;;82.28;46.22;;;;;;;;;;5066983;28;20650;-79
2023/05/23 02:08:19;;;;;;;87.32;50.80;;;;;;;;;;5075214;28;20213;-80
2023/05/23 02:10:46;;;;;;;88.45;49.42;;;;;;;;;;5080744;28;20213;-82
2023/05/23 02:13:13;;;;;;;90.10;50.65;;;;;;;;;;5068583;28;20237;-78
2023/05/23 02:15:40;;;;;;;92.53;51.47;;;;;;;;;;5070088;28;20212;-81
2023/05/23 02:18:08;;;;;;;89.55;51.70;;;;;;;;;;5068833;28;20246;-77
2023/05/23 02:20:35;;;;;;;89.93;52.88;;;;;;;;;;5071656;28;20204;-79
2023/05/23 02:23:03;;;;;;;92.10;52.08;;;;;;;;;;5058072;28;20976;-80
2023/05/23 02:25:30;;;;;;;94.55;53.25;;;;;;;;;;5073338;28;20295;-81
2023/05/23 02:27:57;;;;;;;97.82;52.05;;;;;;;;;;5058860;28;20523;-80
2023/05/23 02:30:24;;;;;;;100.13;53.97;;;;;;;;;;5071259;28;20775;-78
2023/05/23 02:32:52;;;;;;;96.47;55.25;;;;;;;;;;5074090;28;20699;-79
2023/05/23 02:35:19;;;;;;;104.65;55.25;;;;;;;;;;5064889;28;20258;-80
2023/05/23 02:37:47;;;;;;;109.40;56.30;;;;;;;;;;5080528;28;20222;-80
2023/05/23 02:40:14;;;;;;;116.10;57.72;;;;;;;;;;5062357;28;20213;-80
2023/05/23 02:42:41;;;;;;;112.72;58.70;;;;;;;;;;5074893;28;20252;-81
2023/05/23 02:45:09;;;;;;;108.93;60.85;;;;;;;;;;5083891;28;20220;-79
2023/05/23 02:47:36;;;;;;;118.35;61.15;;;;;;;;;;5080296;28;20628;-82
2023/05/23 02:50:03;;;;;;;116.40;59.03;;;;;;;;;;5069871;28;20228;-80
2023/05/23 02:52:31;;;;;;;122.45;60.17;;;;;;;;;;5079981;28;20416;-81
2023/05/23 02:54:58;;;;;;;132.35;63.50;;;;;;;;;;5049534;28;20706;-81
2023/05/23 02:57:26;;;;;;;123.93;60.75;;;;;;;;;;5082211;28;20240;-81
2023/05/23 02:59:53;;;;;;;132.77;64.38;;;;;;;;;;5083036;28;20258;-80
2023/05/23 03:02:20;;;;;;;137.05;66.90;;;;;;;;;;5081489;28;20237;-79
2023/05/23 03:04:48;;;;;;;145.82;67.53;;;;;;;;;;5066256;28;20205;-79
2023/05/23 03:07:15;;;;;;;156.98;69.97;;;;;;;;;;5080680;28;20209;-80
2023/05/23 03:09:53;;;;;;;176.23;74.22;;;;;;;;;;5081131;28;20224;-80
2023/05/23 03:12:21;;;;;;;156.57;73.20;;;;;;;;;;5062515;28;20224;-80
2023/05/23 03:14:48;;;;;;;178.75;75.43;;;;;;;;;;5081358;28;20194;-77
2023/05/23 03:17:15;;;;;;;175.23;80.10;;;;;;;;;;5063425;28;20200;-81
2023/05/23 03:19:42;;;;;;;176.15;76.00;;;;;;;;;;5063080;28;20228;-79
2023/05/23 03:22:09;;;;;;;168.02;73.05;;;;;;;;;;5062046;28;20262;-81
2023/05/23 03:24:36;;;;;;;171.70;71.40;;;;;;;;;;5081296;28;20228;-79
2023/05/23 03:27:04;;;;;;;169.20;72.60;;;;;;;;;;5065625;28;20197;-80
2023/05/23 03:29:31;;;;;;;167.23;73.63;;;;;;;;;;5064181;28;20247;-80
2023/05/23 03:31:58;;;;;;;165.60;72.97;;;;;;;;;;5081824;28;20735;-79
2023/05/23 03:34:26;;;;;;;161.00;72.32;;;;;;;;;;5080762;28;20605;-80
2023/05/23 03:36:53;;;;;;;166.77;71.50;;;;;;;;;;5081893;28;20232;-78
2023/05/23 03:39:21;;;;;;;156.40;70.57;;;;;;;;;;5072859;28;20302;-78
2023/05/23 03:41:49;;;;;;;148.40;67.78;;;;;;;;;;5053951;28;20204;-78
2023/05/23 03:44:16;;;;;;;148.77;68.50;;;;;;;;;;5049882;28;20608;-81
2023/05/23 03:46:43;;;;;;;142.38;67.35;;;;;;;;;;5070296;28;20228;-80
2023/05/23 03:49:10;;;;;;;148.98;71.70;;;;;;;;;;5079998;28;20255;-79
2023/05/23 03:51:38;;;;;;;147.02;70.30;;;;;;;;;;5079378;28;20209;-81
2023/05/23 03:54:05;;;;;;;138.10;65.15;;;;;;;;;;5075034;28;20315;-80
2023/05/23 03:56:32;;;;;;;125.43;61.83;;;;;;;;;;5061628;28;20266;-80
2023/05/23 03:59:00;;;;;;;120.78;61.63;;;;;;;;;;5073129;28;20236;-79
2023/05/23 04:01:27;;;;;;;115.43;58.67;;;;;;;;;;5042215;28;20621;-80
2023/05/23 04:03:54;;;;;;;116.03;60.03;;;;;;;;;;5063095;28;20229;-79
2023/05/23 04:06:22;;;;;;;120.63;60.92;;;;;;;;;;5051832;28;20384;-80
2023/05/23 04:08:49;;;;;;;123.90;61.38;;;;;;;;;;5044719;28;20209;-80
2023/05/23 04:11:16;;;;;;;120.20;60.47;;;;;;;;;;5071971;28;20209;-81
2023/05/23 04:13:45;;;;;;;132.18;63.35;;;;;;;;;;5042012;28;20850;-81
2023/05/23 04:16:13;;;;;;;142.88;66.93;;;;;;;;;;5055702;28;20199;-80
2023/05/23 04:18:42;;;;;;;135.57;65.85;;;;;;;;;;5066328;28;20216;-82
2023/05/23 04:21:09;;;;;;;152.70;69.28;;;;;;;;;;5064921;28;20213;-79
2023/05/23 04:23:37;;;;;;;167.40;72.72;;;;;;;;;;5076578;28;20221;-80
2023/05/23 04:26:04;;;;;;;154.70;71.28;;;;;;;;;;5040954;28;20208;-81
2023/05/23 04:28:32;;;;;;;158.93;71.55;;;;;;;;;;5050726;28;20204;-81
2023/05/23 04:31:01;;;;;;;151.65;69.45;;;;;;;;;;5058975;28;20704;-83
2023/05/23 04:33:29;;;;;;;160.93;72.25;;;;;;;;;;5052591;28;20216;-77
2023/05/23 04:35:58;;;;;;;162.15;74.10;;;;;;;;;;5059696;28;20641;-84
2023/05/23 04:38:26;;;;;;;155.52;69.72;;;;;;;;;;5078337;28;20205;-85
2023/05/23 04:40:53;;;;;;;145.13;67.53;;;;;;;;;;5062730;28;20228;-78
2023/05/23 04:43:25;;;;;;;139.23;66.70;;;;;;;;;;5077508;28;20817;-84
2023/05/23 04:45:53;;;;;;;146.38;70.97;;;;;;;;;;5077934;28;20265;-82
2023/05/23 04:48:20;;;;;;;169.10;74.00;;;;;;;;;;5088138;28;20209;-83
2023/05/23 04:50:50;;;;;;;176.90;78.63;;;;;;;;;;5083149;28;20278;-80
2023/05/23 04:53:17;;;;;;;175.32;78.35;;;;;;;;;;5059940;28;20312;-79
2023/05/23 04:55:44;;;;;;;175.38;79.47;;;;;;;;;;5080251;28;20670;-82
2023/05/23 04:58:12;;;;;;;176.13;79.25;;;;;;;;;;5083926;28;20315;-85
2023/05/23 05:00:39;;;;;;;180.35;77.00;;;;;;;;;;5077525;28;20590;-81
2023/05/23 05:03:08;;;;;;;171.15;78.13;;;;;;;;;;5075484;28;20237;-81
2023/05/23 05:05:36;;;;;;;182.77;83.57;;;;;;;;;;5080908;28;20201;-83
2023/05/23 05:08:03;;;;;;;187.70;85.18;;;;;;;;;;5061285;28;20211;-84
2023/05/23 05:10:30;;;;;;;186.57;80.68;;;;;;;;;;5077205;28;20251;-83
2023/05/23 05:12:58;;;;;;;185.77;79.95;;;;;;;;;;5057879;28;20604;-82
2023/05/23 05:15:25;;;;;;;173.55;79.07;;;;;;;;;;5057852;28;20197;-82
2023/05/23 05:17:52;;;;;;;176.40;82.72;;;;;;;;;;5081865;28;20192;-82
2023/05/23 05:20:20;;;;;;;166.73;77.25;;;;;;;;;;5079051;28;20213;-82
2023/05/23 05:22:54;;;;;;;163.38;77.70;;;;;;;;;;5081024;28;20230;-80
2023/05/23 05:25:21;;;;;;;156.77;76.07;;;;;;;;;;5079571;28;20264;-84
2023/05/23 05:27:49;;;;;;;169.27;82.78;;;;;;;;;;5068347;28;20856;-84
2023/05/23 05:30:16;;;;;;;157.80;76.28;;;;;;;;;;5081018;28;20224;-82
2023/05/23 05:32:45;;;;;;;164.18;78.43;;;;;;;;;;5067557;28;20355;-83
2023/05/23 05:35:12;;;;;;;168.13;82.47;;;;;;;;;;5085061;28;20205;-82
2023/05/23 05:37:40;;;;;;;179.57;82.53;;;;;;;;;;5085262;28;20204;-84
2023/05/23 05:40:08;;;;;;;167.85;79.30;;;;;;;;;;5067308;28;20215;-82
2023/05/23 05:42:36;;;;;;;177.52;83.55;;;;;;;;;;5077360;28;20708;-82
2023/05/23 05:45:03;;;;;;;183.07;82.82;;;;;;;;;;5078996;28;20204;-79
2023/05/23 05:47:30;;;;;;;172.02;78.43;;;;;;;;;;5083123;28;20263;-79
2023/05/23 05:49:58;;;;;;;169.80;78.47;;;;;;;;;;5063822;28;20220;-84
2023/05/23 05:52:25;;;;;;;161.20;75.97;;;;;;;;;;5066829;28;20767;-82
2023/05/23 05:55:01;;;;;;;156.40;75.22;;;;;;;;;;5070186;28;20678;-84
2023/05/23 05:57:33;;;;;;;167.43;77.83;;;;;;;;;;5081142;28;20240;-81
2023/05/23 06:00:01;;;;;;;172.07;79.95;;;;;;;;;;5084006;28;20201;-80
2023/05/23 06:02:28;;;;;;;169.55;81.53;;;;;;;;;;5063859;28;20224;-84
2023/05/23 06:04:55;;;;;;;159.18;75.85;;;;;;;;;;5079645;28;20227;-79
2023/05/23 06:07:23;;;;;;;153.90;77.80;;;;;;;;;;5078751;28;20209;-81
2023/05/23 06:09:50;;;;;;;181.70;78.88;;;;;;;;;;5081601;28;20283;-79
2023/05/23 06:12:17;;;;;;;173.32;80.05;;;;;;;;;;5081055;28;20796;-78
2023/05/23 06:14:44;;;;;;;201.43;78.45;;;;;;;;;;5086082;28;20193;-79
2023/05/23 06:17:12;;;;;;;170.10;79.47;;;;;;;;;;5056662;28;20208;-80
2023/05/23 06:19:42;;;;;;;161.57;77.43;;;;;;;;;;5078359;28;20237;-83
2023/05/23 06:22:09;;;;;;;189.65;76.88;;;;;;;;;;5079518;28;20292;-81
2023/05/23 06:24:37;;;;;;;170.73;75.60;;;;;;;;;;5063331;28;20259;-82
2023/05/23 06:27:04;;;;;;;378.25;76.38;;;;;;;;;;5091487;28;20195;-79
2023/05/23 06:29:31;;;;;;;389.55;75.72;;;;;;;;;;5076893;28;20252;-81
2023/05/23 06:31:58;;;;;;;274.95;79.68;;;;;;;;;;5082129;28;20255;-81
2023/05/23 06:34:26;;;;;;;171.52;77.70;;;;;;;;;;5065475;28;20197;-81
2023/05/23 06:36:53;;;;;;;222.35;76.82;;;;;;;;;;5064182;28;20205;-83
2023/05/23 06:39:20;;;;;;;402.10;74.55;;;;;;;;;;5065561;28;20201;-81
2023/05/23 06:41:47;;;;;;;166.90;75.72;;;;;;;;;;5078486;28;20619;-80
2023/05/23 06:44:15;;;;;;;200.35;75.15;;;;;;;;;;5083465;28;20273;-81
2023/05/23 06:46:42;;;;;;;154.52;73.85;;;;;;;;;;5080482;28;20197;-82
2023/05/23 06:49:09;;;;;;;169.93;73.38;;;;;;;;;;5079009;28;20197;-79
2023/05/23 06:51:41;;;;;;;186.00;72.80;;;;;;;;;;5084766;28;20934;-79
2023/05/23 06:54:08;;;;;;;170.43;74.82;;;;;;;;;;5082089;28;20218;-86
2023/05/23 06:56:36;;;;;;;379.08;74.38;;;;;;;;;;5068322;28;20209;-83
2023/05/23 06:59:03;;;;;;;386.27;72.82;;;;;;;;;;5084865;28;20225;-79
2023/05/23 07:01:30;;;;;;;347.27;77.80;;;;;;;;;;5065806;28;20263;-83
2023/05/23 07:03:58;;;;;;;550.03;79.63;;;;;;;;;;5076113;28;20286;-86
2023/05/23 07:06:26;;;;;;;201.23;74.28;;;;;;;;;;5061165;28;20212;-86
2023/05/23 07:08:54;;;;;;;373.38;74.28;;;;;;;;;;5086589;28;20201;-82
2023/05/23 07:11:21;;;;;;;225.07;77.38;;;;;;;;;;5079593;28;20844;-81
2023/05/23 07:13:48;;;;;;;296.15;75.63;;;;;;;;;;5078302;28;20230;-80
2023/05/23 07:16:53;;;;;;;308.10;75.80;;;;;;;;;;5079191;28;20265;-83
2023/05/23 07:19:21;;;;;;;167.00;73.55;;;;;;;;;;5064323;28;20196;-83
2023/05/23 07:21:51;;;;;;;176.25;76.60;;;;;;;;;;5068522;28;20228;-84
2023/05/23 07:24:18;;;;;;;164.25;76.85;;;;;;;;;;5085483;28;20350;-82
2023/05/23 07:26:45;;;;;;;138.90;73.53;;;;;;;;;;5084165;28;20576;-80
2023/05/23 07:29:12;;;;;;;140.52;71.88;;;;;;;;;;5080953;28;20205;-80
2023/05/23 07:31:46;;;;;;;126.20;69.18;;;;;;;;;;5083227;28;20267;-86
2023/05/23 07:34:14;;;;;;;117.57;67.53;;;;;;;;;;5078062;28;20240;-81
2023/05/23 07:36:41;;;;;;;116.40;68.75;;;;;;;;;;5089046;28;20205;-79
2023/05/23 07:39:09;;;;;;;112.18;65.25;;;;;;;;;;5078619;28;20251;-79
2023/05/23 07:41:36;;;;;;;108.10;63.25;;;;;;;;;;5081349;28;20206;-82
2023/05/23 07:44:04;;;;;;;94.50;59.60;;;;;;;;;;5062883;28;20286;-80
2023/05/23 07:46:31;;;;;;;92.90;58.75;;;;;;;;;;5058403;28;20201;-82
2023/05/23 07:48:58;;;;;;;88.45;57.20;;;;;;;;;;5082006;28;21001;-78
2023/05/23 07:51:25;;;;;;;81.75;55.65;;;;;;;;;;5083959;28;20698;-80
2023/05/23 07:53:53;;;;;;;80.93;54.67;;;;;;;;;;5067078;28;20212;-79
2023/05/23 07:56:20;;;;;;;73.38;52.00;;;;;;;;;;5085777;28;20201;-83
2023/05/23 07:58:48;;;;;;;70.22;50.80;;;;;;;;;;5062353;28;20208;-82
2023/05/23 08:01:17;;;;;;;68.35;49.25;;;;;;;;;;5080038;28;20232;-81
2023/05/23 08:03:44;;;;;;;64.57;48.35;;;;;;;;;;5080389;28;20693;-82
2023/05/23 08:06:11;;;;;;;61.20;45.55;;;;;;;;;;5076722;28;20214;-79
2023/05/23 08:08:38;;;;;;;63.80;47.13;;;;;;;;;;5081224;28;20201;-77
2023/05/23 08:11:06;;;;;;;61.70;46.10;;;;;;;;;;5062790;28;20795;-83
2023/05/23 08:13:33;;;;;;;56.65;43.17;;;;;;;;;;5074321;28;20222;-80
2023/05/23 08:16:00;;;;;;;61.28;45.00;;;;;;;;;;5076637;28;20604;-82
2023/05/23 08:18:29;;;;;;;61.05;45.20;;;;;;;;;;5065848;28;20201;-81
2023/05/23 08:20:57;;;;;;;60.17;44.58;;;;;;;;;;5092880;28;20206;-82
2023/05/23 08:23:24;;;;;;;57.80;44.00;;;;;;;;;;5073295;28;20233;-80
2023/05/23 08:25:52;;;;;;;59.92;44.03;;;;;;;;;;5076860;28;20208;-82
2023/05/23 08:28:19;;;;;;;59.78;45.33;;;;;;;;;;5079918;28;20273;-82
2023/05/23 08:30:46;;;;;;;59.63;44.90;;;;;;;;;;5087693;28;20702;-82
2023/05/23 08:33:14;;;;;;;72.43;54.33;;;;;;;;;;5064325;28;20248;-79
2023/05/23 08:35:41;;;;;;;69.68;52.40;;;;;;;;;;5078009;28;20204;-84
2023/05/23 08:38:09;;;;;;;63.20;49.10;;;;;;;;;;5059844;28;20196;-79
2023/05/23 08:40:36;;;;;;;68.85;48.08;;;;;;;;;;5082270;28;20327;-81
2023/05/23 08:43:04;;;;;;;66.97;49.00;;;;;;;;;;5084638;28;20578;-82
2023/05/23 08:45:33;;;;;;;66.15;49.25;;;;;;;;;;5084934;28;20295;-84
2023/05/23 08:48:01;;;;;;;70.13;51.92;;;;;;;;;;5078058;28;20208;-78
2023/05/23 08:50:29;;;;;;;65.97;48.92;;;;;;;;;;5099472;28;20288;-84
2023/05/23 08:52:58;;;;;;;68.68;50.20;;;;;;;;;;5067165;28;20639;-83
2023/05/23 08:55:26;;;;;;;69.88;51.22;;;;;;;;;;5068069;28;20815;-82
2023/05/23 08:58:02;;;;;;;76.35;53.90;;;;;;;;;;5066915;28;20624;-81
2023/05/23 09:00:29;;;;;;;78.25;55.60;;;;;;;;;;5079692;28;20201;-84
2023/05/23 09:02:56;;;;;;;78.47;56.50;;;;;;;;;;5064572;28;20235;-85
2023/05/23 09:05:26;;;;;;;83.68;57.40;;;;;;;;;;5083135;28;20221;-84
2023/05/23 09:07:53;;;;;;;82.15;58.75;;;;;;;;;;5081136;28;20253;-81
2023/05/23 09:10:21;;;;;;;81.78;58.03;;;;;;;;;;5061633;28;20225;-78
2023/05/23 09:12:48;;;;;;;81.97;56.50;;;;;;;;;;5087665;27;20225;-80
2023/05/23 09:15:16;;;;;;;85.53;57.10;;;;;;;;;;5085536;28;20975;-84
2023/05/23 09:17:44;;;;;;;84.15;58.67;;;;;;;;;;5081545;28;20682;-82
2023/05/23 09:20:13;;;;;;;92.05;58.83;;;;;;;;;;5066493;28;20209;-83
2023/05/23 09:22:41;;;;;;;83.28;57.17;;;;;;;;;;5079479;28;20600;-81
2023/05/23 09:25:08;;;;;;;85.65;58.47;;;;;;;;;;5071849;28;20202;-80
2023/05/23 09:27:36;;;;;;;64.97;48.20;;;;;;;;;;5077914;28;20201;-80
2023/05/23 09:30:07;;;;;;;60.22;44.58;;;;;;;;;;5076276;28;20219;-80
2023/05/23 09:32:34;;;;;;;65.00;48.60;;;;;;;;;;5067847;28;20216;-80
2023/05/23 09:35:03;;;;;;;87.55;57.75;;;;;;;;;;5082934;28;20750;-80
2023/05/23 09:37:31;;;;;;;89.55;59.47;;;;;;;;;;5083466;28;20254;-80
2023/05/23 09:39:59;;;;;;;89.28;55.08;;;;;;;;;;5062893;28;20229;-81
2023/05/23 09:42:33;;;;;;;69.40;52.83;;;;;;;;;;5066584;28;20217;-82
2023/05/23 09:45:01;;;;;;;61.40;45.95;;;;;;;;;;5061027;28;20330;-80
2023/05/23 09:47:31;;;;;;;59.10;45.78;;;;;;;;;;5064816;28;20742;-80
2023/05/23 09:49:58;;;;;;;67.20;46.85;;;;;;;;;;5065931;28;20205;-80
2023/05/23 09:52:25;;;;;;;61.90;48.15;;;;;;;;;;5076166;28;20264;-81
2023/05/23 09:54:54;;;;;;;68.72;49.78;;;;;;;;;;5090421;28;20205;-79
2023/05/23 09:57:22;;;;;;;70.45;52.72;;;;;;;;;;5076959;28;20254;-79
2023/05/23 09:59:53;;;;;;;76.28;53.58;;;;;;;;;;5080412;28;20193;-77
2023/05/23 10:02:30;;;;;;;82.37;59.40;;;;;;;;;;5076018;28;20763;-78
2023/05/23 10:04:57;;;;;;;79.68;56.78;;;;;;;;;;5078923;28;20211;-78
2023/05/23 10:07:25;;;;;;;81.00;57.13;;;;;;;;;;5079889;28;20253;-80
2023/05/23 10:10:01;;;;;;;82.28;59.67;;;;;;;;;;5061251;28;20262;-79
2023/05/23 10:12:31;;;;;;;76.28;56.53;;;;;;;;;;5069913;28;20246;-83
2023/05/23 10:15:03;;;;;;;79.78;57.20;;;;;;;;;;5080954;28;20201;-83
2023/05/23 10:17:36;;;;;;;79.03;56.58;;;;;;;;;;5076646;28;20200;-81
2023/05/23 10:20:14;;;;;;;79.10;56.27;;;;;;;;;;5082286;28;20715;-80
2023/05/23 10:22:42;;;;;;;77.23;54.17;;;;;;;;;;5064979;28;20228;-82
2023/05/23 10:25:09;;;;;;;77.40;54.05;;;;;;;;;;5078809;28;20225;-80
2023/05/23 10:27:37;;;;;;;81.60;56.57;;;;;;;;;;5079399;28;20216;-81
2023/05/23 10:30:07;;;;;;;81.37;56.30;;;;;;;;;;5077301;28;20572;-81
2023/05/23 10:32:35;;;;;;;82.03;58.20;;;;;;;;;;5079875;28;20233;-82
2023/05/23 10:35:21;;;;;;;94.50;57.13;;;;;;;;;;5086045;28;20197;-83
2023/05/23 10:38:08;;;;;;;80.20;55.50;;;;;;;;;;5083529;28;20197;-78
2023/05/23 10:40:35;;;;;;;89.13;56.53;;;;;;;;;;5084352;28;20197;-80
2023/05/23 10:43:10;;;;;;;80.00;58.83;;;;;;;;;;5083321;28;20591;-80
2023/05/23 10:45:41;;;;;;;73.13;53.00;;;;;;;;;;5082095;28;20354;-82
2023/05/23 10:48:22;;;;;;;75.73;52.20;;;;;;;;;;5066522;28;20200;-78
2023/05/23 10:51:05;;;;;;;70.73;51.00;;;;;;;;;;5076591;28;20624;-80
2023/05/23 10:53:37;;;;;;;71.23;50.50;;;;;;;;;;5056421;28;20221;-81
2023/05/23 10:56:06;;;;;;;67.87;49.67;;;;;;;;;;5111308;28;20713;-80
2023/05/23 10:58:34;;;;;;;69.30;49.00;;;;;;;;;;5082703;28;20209;-82
2023/05/23 11:01:08;;;;;;;71.43;50.10;;;;;;;;;;5076075;28;20197;-80
2023/05/23 11:03:37;;;;;;;63.30;47.10;;;;;;;;;;5083230;28;20228;-79
2023/05/23 11:06:05;;;;;;;63.90;46.93;;;;;;;;;;5072700;28;20254;-80
2023/05/23 11:08:37;;;;;;;65.60;46.30;;;;;;;;;;5084059;28;20197;-81
2023/05/23 11:11:14;;;;;;;58.23;45.63;;;;;;;;;;5067434;28;20229;-82
2023/05/23 11:13:54;;;;;;;58.97;44.67;;;;;;;;;;5081020;28;20217;-82
2023/05/23 11:16:25;;;;;;;61.80;44.13;;;;;;;;;;5063634;28;20748;-83
2023/05/23 11:18:57;;;;;;;58.10;44.53;;;;;;;;;;5084355;28;20208;-85
2023/05/23 11:21:25;;;;;;;57.20;42.63;;;;;;;;;;5069057;28;20231;-80
2023/05/23 11:23:54;;;;;;;58.67;44.07;;;;;;;;;;5063006;28;20221;-81
2023/05/23 11:26:31;;;;;;;57.70;45.47;;;;;;;;;;5074648;28;20359;-83
2023/05/23 11:28:59;;;;;;;54.88;41.63;;;;;;;;;;5083637;28;20205;-79
2023/05/23 11:31:26;;;;;;;52.17;41.10;;;;;;;;;;5089247;28;20231;-78
2023/05/23 11:33:54;;;;;;;52.67;39.00;;;;;;;;;;5082226;28;20711;-78
2023/05/23 11:36:21;;;;;;;52.80;39.35;;;;;;;;;;5089964;28;20208;-80
2023/05/23 11:38:51;;;;;;;52.58;39.53;;;;;;;;;;5088863;28;20526;-82
2023/05/23 11:41:18;;;;;;;60.42;41.70;;;;;;;;;;5075914;28;20201;-76
2023/05/23 11:43:52;;;;;;;50.75;38.20;;;;;;;;;;5063881;28;20229;-83
2023/05/23 11:46:20;;;;;;;44.55;36.40;;;;;;;;;;5066191;28;20207;-80
2023/05/23 11:48:47;;;;;;;45.00;37.10;;;;;;;;;;5070380;28;20197;-82
2023/05/23 11:51:15;;;;;;;46.22;37.70;;;;;;;;;;5057907;28;20621;-81
2023/05/23 11:53:43;;;;;;;44.78;37.40;;;;;;;;;;5066911;28;20282;-79
2023/05/23 11:56:10;;;;;;;46.10;37.05;;;;;;;;;;5064878;28;20232;-81
2023/05/23 11:58:39;;;;;;;46.65;37.95;;;;;;;;;;5063264;28;20260;-80
2023/05/23 12:01:08;;;;;;;44.25;36.38;;;;;;;;;;5076586;28;20296;-79
2023/05/23 12:03:44;;;;;;;44.63;37.08;;;;;;;;;;5068131;28;20384;-83
2023/05/23 12:06:16;;;;;;;47.88;36.60;;;;;;;;;;5074870;28;20664;-79
2023/05/23 12:08:43;;;;;;;38.92;32.80;;;;;;;;;;5065606;28;20204;-82
2023/05/23 12:11:10;;;;;;;39.78;33.90;;;;;;;;;;5069621;28;20691;-81
2023/05/23 12:13:40;;;;;;;35.95;30.98;;;;;;;;;;5066388;28;20216;-83
2023/05/23 12:16:08;;;;;;;35.42;29.20;;;;;;;;;;5072650;28;20196;-81
2023/05/23 12:18:37;;;;;;;32.88;29.00;;;;;;;;;;5061159;28;20585;-82
2023/05/23 12:21:06;;;;;;;30.27;26.90;;;;;;;;;;5081710;28;20197;-82
2023/05/23 12:23:35;;;;;;;32.30;27.98;;;;;;;;;;5070232;28;20718;-80
2023/05/23 12:26:05;;;;;;;31.33;27.70;;;;;;;;;;5063330;28;20637;-82
2023/05/23 12:28:36;;;;;;;35.30;28.23;;;;;;;;;;5062422;28;20219;-80
2023/05/23 12:31:11;;;;;;;32.17;28.27;;;;;;;;;;5060247;28;20209;-81
2023/05/23 12:33:39;;;;;;;31.35;27.73;;;;;;;;;;5070879;28;20279;-80
2023/05/23 12:36:06;;;;;;;32.22;26.63;;;;;;;;;;5070370;28;20664;-83
2023/05/23 12:38:37;;;;;;;31.65;26.50;;;;;;;;;;5073991;28;20202;-83
2023/05/23 12:41:08;;;;;;;34.63;28.08;;;;;;;;;;5075642;28;20194;-82
2023/05/23 12:43:39;;;;;;;31.58;27.80;;;;;;;;;;5071812;28;20753;-82
2023/05/23 12:46:10;;;;;;;29.40;26.33;;;;;;;;;;5072780;28;20211;-79
2023/05/23 12:48:37;;;;;;;30.48;26.35;;;;;;;;;;5064690;28;20799;-79
2023/05/23 12:51:04;;;;;;;29.75;26.60;;;;;;;;;;5063859;28;20317;-80
2023/05/23 12:53:31;;;;;;;31.10;25.17;;;;;;;;;;5043271;28;20263;-78
2023/05/23 12:55:59;;;;;;;29.73;25.02;;;;;;;;;;5069672;28;20255;-81
2023/05/23 12:58:27;;;;;;;27.02;23.77;;;;;;;;;;5070950;28;20258;-83
2023/05/23 13:00:57;;;;;;;25.98;22.50;;;;;;;;;;5061501;28;20827;-82
2023/05/23 13:03:25;;;;;;;25.33;22.25;;;;;;;;;;5070658;28;20232;-85
2023/05/23 13:05:53;;;;;;;24.63;22.02;;;;;;;;;;5056305;28;20273;-85
2023/05/23 13:08:21;;;;;;;23.67;21.08;;;;;;;;;;5076538;28;20268;-83
2023/05/23 13:10:48;;;;;;;25.02;22.38;;;;;;;;;;5062034;28;20209;-79
2023/05/23 13:13:16;;;;;;;24.00;21.20;;;;;;;;;;5065619;28;20347;-82
2023/05/23 13:15:43;;;;;;;23.40;20.90;;;;;;;;;;5069119;28;20250;-80
2023/05/23 13:18:13;;;;;;;24.27;21.08;;;;;;;;;;5072012;28;20575;-84
2023/05/23 13:20:41;;;;;;;23.55;20.08;;;;;;;;;;5057300;28;20458;-78
2023/05/23 13:23:08;;;;;;;22.50;20.08;;;;;;;;;;5042549;28;20229;-83
2023/05/23 13:25:35;;;;;;;21.20;18.98;;;;;;;;;;5050053;28;20236;-81
2023/05/23 13:28:03;;;;;;;20.20;18.10;;;;;;;;;;5042624;28;20211;-81
2023/05/23 13:30:30;;;;;;;20.40;18.30;;;;;;;;;;5038689;28;20243;-81
2023/05/23 13:32:57;;;;;;;19.15;17.27;;;;;;;;;;5077741;28;20270;-83
2023/05/23 13:35:25;;;;;;;18.67;16.85;;;;;;;;;;5066563;28;20208;-83
2023/05/23 13:37:52;;;;;;;18.60;16.60;;;;;;;;;;5044834;28;20201;-80
2023/05/23 13:40:20;;;;;;;19.10;17.17;;;;;;;;;;5078496;28;20640;-77
2023/05/23 13:42:49;;;;;;;18.45;16.63;;;;;;;;;;5066061;28;20216;-80
2023/05/23 13:45:17;;;;;;;18.08;16.13;;;;;;;;;;5064987;28;20331;-81
2023/05/23 13:47:45;;;;;;;18.83;16.95;;;;;;;;;;5066793;28;20474;-81
2023/05/23 13:50:12;;;;;;;17.42;15.73;;;;;;;;;;5048969;28;20205;-81
2023/05/23 13:52:40;;;;;;;17.38;15.68;;;;;;;;;;5061846;28;20415;-80
2023/05/23 13:55:12;;;;;;;18.30;15.95;;;;;;;;;;5048518;28;20271;-80
2023/05/23 13:57:39;;;;;;;16.52;14.55;;;;;;;;;;5060441;28;20692;-84
2023/05/23 14:00:07;;;;;;;16.98;15.25;;;;;;;;;;5062784;28;20636;-83
2023/05/23 14:02:35;;;;;;;24.85;19.52;;;;;;;;;;5073756;28;20301;-81
2023/05/23 14:05:03;;;;;;;23.08;17.75;;;;;;;;;;5061073;28;20594;-80
2023/05/23 14:07:31;;;;;;;17.50;15.70;;;;;;;;;;5047447;28;20212;-80
2023/05/23 14:09:58;;;;;;;17.33;15.57;;;;;;;;;;5067376;28;20705;-83
2023/05/23 14:12:26;;;;;;;23.58;18.23;;;;;;;;;;5040995;28;20706;-80
2023/05/23 14:14:53;;;;;;;20.58;18.38;;;;;;;;;;5042399;28;20215;-80
2023/05/23 14:17:20;;;;;;;18.08;16.20;;;;;;;;;;5065585;28;20216;-81
2023/05/23 14:19:47;;;;;;;16.75;15.05;;;;;;;;;;5055057;28;20851;-83
2023/05/23 14:22:14;;;;;;;17.00;15.40;;;;;;;;;;5044560;28;20217;-81